Time;durP1;ratioP1;P1;durP2;ratioP2;P2;SDS_P1;SDS_P2;PMS_P1;PMS_P2;Temp;Humidity;BMP_temperature;BMP_pressure;BME280_temperature;BME280_humidity;BME280_pressure;Samples;Min_cycle;Max_cycle;Signal;HPM_P1;HPM_P2
2023/10/24 00:01:03;;;;;;;2.05;1.95;;;;;;;;;;6155729;23;20041;-81
2023/10/24 00:03:30;;;;;;;2.20;2.10;;;;;;;;;;6160833;23;20024;-81
2023/10/24 00:05:56;;;;;;;2.60;2.50;;;;;;;;;;6167546;23;20069;-82
2023/10/24 00:08:22;;;;;;;2.42;2.22;;;;;;;;;;6168763;23;20055;-81
2023/10/24 00:10:48;;;;;;;2.15;2.05;;;;;;;;;;6156944;23;20024;-80
2023/10/24 00:13:14;;;;;;;2.13;2.03;;;;;;;;;;6176972;23;20017;-84
2023/10/24 00:15:40;;;;;;;2.30;2.20;;;;;;;;;;6177549;23;20002;-85
2023/10/24 00:18:07;;;;;;;2.17;2.08;;;;;;;;;;6168330;23;20382;-84
2023/10/24 00:20:33;;;;;;;1.88;1.83;;;;;;;;;;6157850;23;20017;-82
2023/10/24 00:22:59;;;;;;;1.98;1.95;;;;;;;;;;6157806;23;20043;-80
2023/10/24 00:25:25;;;;;;;2.30;2.20;;;;;;;;;;6158051;23;20494;-80
2023/10/24 00:27:51;;;;;;;2.72;2.30;;;;;;;;;;6159860;23;20017;-81
2023/10/24 00:30:19;;;;;;;2.38;2.28;;;;;;;;;;6165122;23;20490;-81
2023/10/24 00:32:49;;;;;;;2.50;2.40;;;;;;;;;;6140702;23;20018;-81
2023/10/24 00:35:16;;;;;;;2.40;2.30;;;;;;;;;;6165220;23;20474;-81
2023/10/24 00:37:42;;;;;;;2.42;2.33;;;;;;;;;;6161470;23;20044;-81
2023/10/24 00:40:09;;;;;;;2.03;1.98;;;;;;;;;;6162309;23;20017;-81
2023/10/24 00:42:35;;;;;;;2.33;2.22;;;;;;;;;;6160145;23;20077;-82
2023/10/24 00:45:01;;;;;;;2.40;2.30;;;;;;;;;;6163098;23;20045;-82
2023/10/24 00:47:30;;;;;;;2.47;2.38;;;;;;;;;;6163760;23;20010;-82
2023/10/24 00:49:55;;;;;;;2.40;2.30;;;;;;;;;;6158073;23;20014;-81
2023/10/24 00:52:21;;;;;;;2.30;2.20;;;;;;;;;;6157839;23;20010;-81
2023/10/24 00:54:48;;;;;;;2.70;2.60;;;;;;;;;;6159014;23;20354;-81
2023/10/24 00:57:14;;;;;;;2.80;2.70;;;;;;;;;;6132711;23;20022;-80
2023/10/24 00:59:40;;;;;;;2.15;2.05;;;;;;;;;;6160716;23;20072;-82
2023/10/24 01:02:06;;;;;;;2.70;2.60;;;;;;;;;;6162372;23;20072;-81
2023/10/24 01:04:33;;;;;;;2.70;2.60;;;;;;;;;;6160235;23;20470;-81
2023/10/24 01:06:59;;;;;;;2.88;2.67;;;;;;;;;;6140703;23;20017;-81
2023/10/24 01:09:26;;;;;;;2.50;2.40;;;;;;;;;;6162078;23;20013;-82
2023/10/24 01:11:55;;;;;;;2.80;2.70;;;;;;;;;;6164258;23;20466;-81
2023/10/24 01:14:21;;;;;;;2.60;2.50;;;;;;;;;;6162229;23;20025;-79
2023/10/24 01:16:47;;;;;;;3.50;3.30;;;;;;;;;;6166858;23;20018;-83
2023/10/24 01:19:13;;;;;;;3.08;2.97;;;;;;;;;;6190294;23;20053;-81
2023/10/24 01:21:45;;;;;;;3.88;3.67;;;;;;;;;;6166946;23;20036;-81
2023/10/24 01:24:14;;;;;;;3.97;3.78;;;;;;;;;;6169642;23;20040;-83
2023/10/24 01:26:40;;;;;;;2.97;2.80;;;;;;;;;;6169631;23;20009;-83
2023/10/24 01:29:06;;;;;;;3.17;3.03;;;;;;;;;;6163965;23;20014;-82
2023/10/24 01:31:32;;;;;;;3.08;2.97;;;;;;;;;;6159499;23;20010;-82
2023/10/24 01:33:58;;;;;;;3.35;3.15;;;;;;;;;;6136932;23;20010;-81
2023/10/24 01:36:25;;;;;;;3.40;3.25;;;;;;;;;;6164724;23;20505;-82
2023/10/24 01:38:51;;;;;;;3.80;3.60;;;;;;;;;;6166925;23;20036;-80
2023/10/24 01:41:17;;;;;;;4.57;4.28;;;;;;;;;;6163982;23;20029;-81
2023/10/24 01:43:43;;;;;;;3.92;3.72;;;;;;;;;;6158008;23;20021;-81
2023/10/24 01:46:09;;;;;;;5.55;4.47;;;;;;;;;;6159358;23;20016;-80
2023/10/24 01:48:36;;;;;;;4.70;4.32;;;;;;;;;;6157901;23;20018;-81
2023/10/24 01:51:02;;;;;;;4.50;4.22;;;;;;;;;;6158292;23;20010;-79
2023/10/24 01:53:28;;;;;;;3.53;3.33;;;;;;;;;;6154502;23;20009;-80
2023/10/24 01:55:54;;;;;;;5.45;5.05;;;;;;;;;;6156836;23;20021;-80
2023/10/24 01:58:21;;;;;;;4.13;3.83;;;;;;;;;;6158899;23;20041;-81
2023/10/24 02:00:47;;;;;;;4.45;3.97;;;;;;;;;;6163653;23;20044;-81
2023/10/24 02:03:13;;;;;;;4.50;4.20;;;;;;;;;;6164491;23;20061;-80
2023/10/24 02:05:39;;;;;;;4.35;4.05;;;;;;;;;;6165036;23;20021;-80
2023/10/24 02:08:05;;;;;;;4.90;4.60;;;;;;;;;;6162718;23;20018;-80
2023/10/24 02:10:31;;;;;;;4.32;3.97;;;;;;;;;;6188718;23;20074;-81
2023/10/24 02:12:57;;;;;;;5.00;4.60;;;;;;;;;;6168121;23;20068;-81
2023/10/24 02:15:25;;;;;;;4.95;4.55;;;;;;;;;;6163979;23;20033;-80
2023/10/24 02:17:51;;;;;;;4.60;4.30;;;;;;;;;;6164150;23;20051;-80
2023/10/24 02:20:17;;;;;;;4.63;4.32;;;;;;;;;;6164490;23;20017;-81
2023/10/24 02:22:51;;;;;;;5.70;5.30;;;;;;;;;;6168128;23;20010;-81
2023/10/24 02:25:17;;;;;;;4.65;4.35;;;;;;;;;;6167899;23;20136;-82
2023/10/24 02:27:43;;;;;;;5.97;5.57;;;;;;;;;;6168571;23;20028;-81
2023/10/24 02:30:09;;;;;;;5.95;5.55;;;;;;;;;;6167688;23;20013;-84
2023/10/24 02:32:35;;;;;;;5.72;5.32;;;;;;;;;;6168763;23;20022;-81
2023/10/24 02:35:01;;;;;;;5.75;5.35;;;;;;;;;;6168383;23;20014;-82
2023/10/24 02:37:27;;;;;;;5.90;5.45;;;;;;;;;;6169912;23;20020;-83
2023/10/24 02:39:53;;;;;;;8.68;6.50;;;;;;;;;;6171642;23;20040;-82
2023/10/24 02:42:19;;;;;;;7.53;7.00;;;;;;;;;;6171840;23;20009;-83
2023/10/24 02:44:49;;;;;;;5.85;4.60;;;;;;;;;;6168714;23;20049;-83
2023/10/24 02:47:15;;;;;;;5.55;5.15;;;;;;;;;;6171196;23;20041;-80
2023/10/24 02:49:41;;;;;;;5.72;5.22;;;;;;;;;;6166928;23;20014;-81
2023/10/24 02:52:07;;;;;;;6.78;6.10;;;;;;;;;;6165964;23;20017;-82
2023/10/24 02:54:33;;;;;;;5.28;4.88;;;;;;;;;;6137778;23;20009;-81
2023/10/24 02:57:00;;;;;;;5.60;5.20;;;;;;;;;;6165626;23;20026;-82
2023/10/24 02:59:26;;;;;;;6.15;5.57;;;;;;;;;;6180490;23;20010;-81
2023/10/24 03:01:52;;;;;;;7.93;7.22;;;;;;;;;;6172835;23;20017;-80
2023/10/24 03:04:19;;;;;;;8.50;7.32;;;;;;;;;;6171257;23;20017;-80
2023/10/24 03:06:46;;;;;;;6.18;5.60;;;;;;;;;;6160625;23;20006;-80
2023/10/24 03:09:12;;;;;;;7.07;6.47;;;;;;;;;;6165030;23;20021;-82
2023/10/24 03:11:39;;;;;;;8.07;7.32;;;;;;;;;;6169045;23;20077;-82
2023/10/24 03:14:05;;;;;;;7.80;7.10;;;;;;;;;;6173223;23;20048;-83
2023/10/24 03:16:31;;;;;;;9.40;7.85;;;;;;;;;;6171833;23;20009;-81
2023/10/24 03:18:59;;;;;;;7.53;6.72;;;;;;;;;;6156317;23;20028;-81
2023/10/24 03:21:25;;;;;;;8.40;7.70;;;;;;;;;;6157201;23;20527;-80
2023/10/24 03:23:51;;;;;;;8.68;6.68;;;;;;;;;;6158785;23;20042;-80
2023/10/24 03:26:19;;;;;;;8.15;7.45;;;;;;;;;;6160423;23;20118;-81
2023/10/24 03:28:46;;;;;;;13.73;8.48;;;;;;;;;;6162773;23;20096;-81
2023/10/24 03:31:11;;;;;;;11.30;8.07;;;;;;;;;;6117746;23;20013;-81
2023/10/24 03:33:38;;;;;;;9.30;8.50;;;;;;;;;;6161432;23;20024;-81
2023/10/24 03:36:03;;;;;;;9.13;8.32;;;;;;;;;;6110411;23;20005;-81
2023/10/24 03:38:30;;;;;;;8.93;7.45;;;;;;;;;;6158907;23;20021;-81
2023/10/24 03:40:56;;;;;;;6.45;5.95;;;;;;;;;;6159980;23;20017;-81
2023/10/24 03:43:22;;;;;;;9.90;9.00;;;;;;;;;;6160514;23;20017;-79
2023/10/24 03:45:48;;;;;;;10.55;9.60;;;;;;;;;;6156843;23;20080;-80
2023/10/24 03:48:14;;;;;;;9.48;8.57;;;;;;;;;;6157801;23;20505;-80
2023/10/24 03:50:40;;;;;;;12.57;11.35;;;;;;;;;;6156511;23;20024;-80
2023/10/24 03:53:06;;;;;;;9.75;8.52;;;;;;;;;;6158808;23;20140;-80
2023/10/24 03:55:32;;;;;;;11.48;10.40;;;;;;;;;;6154881;23;20025;-80
2023/10/24 03:57:59;;;;;;;7.90;7.30;;;;;;;;;;6156249;23;20033;-80
2023/10/24 04:00:25;;;;;;;9.18;8.48;;;;;;;;;;6155975;23;20021;-81
2023/10/24 04:02:54;;;;;;;7.70;7.00;;;;;;;;;;6154286;23;20037;-79
2023/10/24 04:05:20;;;;;;;7.10;6.30;;;;;;;;;;6153926;23;20359;-80
2023/10/24 04:07:46;;;;;;;8.68;7.97;;;;;;;;;;6153067;23;20017;-80
2023/10/24 04:10:12;;;;;;;7.53;6.00;;;;;;;;;;6129074;23;20024;-80
2023/10/24 04:12:39;;;;;;;8.40;7.70;;;;;;;;;;6129888;23;20018;-80
2023/10/24 04:15:05;;;;;;;7.70;7.03;;;;;;;;;;6155301;23;20018;-80
2023/10/24 04:17:31;;;;;;;9.98;9.10;;;;;;;;;;6154591;23;20045;-80
2023/10/24 04:19:57;;;;;;;9.93;9.13;;;;;;;;;;6155992;23;20028;-81
2023/10/24 04:22:24;;;;;;;8.60;7.93;;;;;;;;;;6157027;23;20013;-80
2023/10/24 04:24:50;;;;;;;8.65;7.88;;;;;;;;;;6130876;23;20086;-80
2023/10/24 04:27:16;;;;;;;7.57;6.95;;;;;;;;;;6131359;23;20013;-80
2023/10/24 04:29:42;;;;;;;9.52;7.40;;;;;;;;;;6162623;23;20036;-81
2023/10/24 04:32:08;;;;;;;7.07;5.60;;;;;;;;;;6159806;23;20041;-81
2023/10/24 04:34:34;;;;;;;6.95;6.35;;;;;;;;;;6157006;23;20021;-79
2023/10/24 04:37:01;;;;;;;6.82;6.20;;;;;;;;;;6165373;23;20039;-79
2023/10/24 04:39:27;;;;;;;5.97;5.50;;;;;;;;;;6190271;23;20049;-79
2023/10/24 04:41:53;;;;;;;7.47;6.78;;;;;;;;;;6160879;23;20044;-79
2023/10/24 04:44:19;;;;;;;8.57;7.15;;;;;;;;;;6134261;23;20016;-80
2023/10/24 04:46:46;;;;;;;8.38;6.15;;;;;;;;;;6155070;23;20049;-79
2023/10/24 04:49:12;;;;;;;6.15;5.70;;;;;;;;;;6153196;23;20010;-80
2023/10/24 04:51:38;;;;;;;9.80;8.05;;;;;;;;;;6128608;23;20014;-79
2023/10/24 04:54:04;;;;;;;6.75;6.00;;;;;;;;;;6127818;23;20362;-79
2023/10/24 04:56:30;;;;;;;7.03;6.43;;;;;;;;;;6154624;23;20068;-79
2023/10/24 04:58:56;;;;;;;8.90;7.95;;;;;;;;;;6153517;23;20381;-79
2023/10/24 05:01:22;;;;;;;7.65;6.95;;;;;;;;;;6155070;23;20016;-79
2023/10/24 05:03:48;;;;;;;8.55;7.75;;;;;;;;;;6153823;23;20018;-79
2023/10/24 05:06:14;;;;;;;10.80;7.15;;;;;;;;;;6155333;23;20038;-79
2023/10/24 05:08:41;;;;;;;7.20;6.50;;;;;;;;;;6152116;23;20018;-79
2023/10/24 05:11:07;;;;;;;8.95;8.13;;;;;;;;;;6152747;23;20017;-80
2023/10/24 05:13:33;;;;;;;8.35;7.55;;;;;;;;;;6153892;23;20021;-80
2023/10/24 05:15:59;;;;;;;9.52;8.65;;;;;;;;;;6153270;23;20009;-78
2023/10/24 05:18:25;;;;;;;9.30;7.78;;;;;;;;;;6127600;23;20026;-79
2023/10/24 05:20:52;;;;;;;9.40;8.60;;;;;;;;;;6177422;23;20455;-79
2023/10/24 05:23:18;;;;;;;8.85;7.82;;;;;;;;;;6176503;23;20454;-78
2023/10/24 05:25:44;;;;;;;9.82;6.65;;;;;;;;;;6152858;23;20013;-78
2023/10/24 05:28:10;;;;;;;8.45;7.65;;;;;;;;;;6153559;23;20406;-79
2023/10/24 05:30:41;;;;;;;9.02;8.23;;;;;;;;;;6152786;23;20017;-80
2023/10/24 05:33:08;;;;;;;8.77;8.07;;;;;;;;;;6153803;23;20009;-79
2023/10/24 05:35:34;;;;;;;10.43;9.25;;;;;;;;;;6153353;23;20092;-79
2023/10/24 05:38:00;;;;;;;8.00;7.30;;;;;;;;;;6151957;23;20481;-80
2023/10/24 05:40:26;;;;;;;11.02;9.60;;;;;;;;;;6152772;23;20358;-79
2023/10/24 05:42:52;;;;;;;9.52;8.60;;;;;;;;;;6156863;23;20014;-80
2023/10/24 05:45:18;;;;;;;7.95;7.25;;;;;;;;;;6157596;23;20068;-81
2023/10/24 05:47:44;;;;;;;8.95;8.25;;;;;;;;;;6170839;23;20009;-80
2023/10/24 05:50:10;;;;;;;9.95;9.02;;;;;;;;;;6171788;23;20021;-79
2023/10/24 05:52:36;;;;;;;11.25;9.18;;;;;;;;;;6161169;23;20014;-80
2023/10/24 05:55:03;;;;;;;10.75;9.27;;;;;;;;;;6158457;23;20104;-79
2023/10/24 05:57:30;;;;;;;8.63;7.75;;;;;;;;;;6156926;23;20088;-80
2023/10/24 05:59:56;;;;;;;10.65;9.73;;;;;;;;;;6155148;23;20100;-80
2023/10/24 06:02:22;;;;;;;12.35;11.13;;;;;;;;;;6154009;23;20103;-78
2023/10/24 06:04:48;;;;;;;11.05;9.73;;;;;;;;;;6154313;23;20513;-79
2023/10/24 06:07:14;;;;;;;13.32;11.90;;;;;;;;;;6154884;23;20031;-79
2023/10/24 06:09:40;;;;;;;10.27;9.20;;;;;;;;;;6127062;23;20423;-78
2023/10/24 06:12:08;;;;;;;11.35;10.15;;;;;;;;;;6150225;23;20473;-78
2023/10/24 06:14:34;;;;;;;11.73;9.02;;;;;;;;;;6153517;23;20488;-79
2023/10/24 06:17:00;;;;;;;10.88;9.43;;;;;;;;;;6153483;23;20135;-78
2023/10/24 06:19:26;;;;;;;11.63;10.43;;;;;;;;;;6152835;23;20073;-79
2023/10/24 06:21:54;;;;;;;15.93;12.02;;;;;;;;;;6126772;23;20013;-79
2023/10/24 06:24:19;;;;;;;12.32;11.07;;;;;;;;;;6154414;23;20018;-81
2023/10/24 06:26:46;;;;;;;16.30;14.25;;;;;;;;;;6130592;23;20005;-79
2023/10/24 06:29:12;;;;;;;16.00;14.30;;;;;;;;;;6155148;23;20105;-79
2023/10/24 06:31:38;;;;;;;14.93;12.82;;;;;;;;;;6158155;23;20017;-81
2023/10/24 06:34:04;;;;;;;15.55;12.95;;;;;;;;;;6164556;23;20013;-81
2023/10/24 06:36:30;;;;;;;15.68;11.80;;;;;;;;;;6163148;23;20017;-81
2023/10/24 06:38:56;;;;;;;12.05;10.55;;;;;;;;;;6167829;23;20025;-82
2023/10/24 06:41:22;;;;;;;13.32;11.25;;;;;;;;;;6170407;23;20009;-79
2023/10/24 06:43:49;;;;;;;13.82;10.65;;;;;;;;;;6167485;23;20020;-81
2023/10/24 06:46:15;;;;;;;10.48;9.43;;;;;;;;;;6172148;23;20009;-82
2023/10/24 06:48:41;;;;;;;13.20;10.48;;;;;;;;;;6170332;23;20065;-80
2023/10/24 06:51:07;;;;;;;13.90;12.48;;;;;;;;;;6172007;23;20028;-82
2023/10/24 06:53:33;;;;;;;13.15;11.15;;;;;;;;;;6175611;23;20013;-82
2023/10/24 06:56:00;;;;;;;27.35;16.52;;;;;;;;;;6162988;23;20024;-80
2023/10/24 06:58:26;;;;;;;31.20;20.20;;;;;;;;;;6163929;23;20021;-82
2023/10/24 07:00:52;;;;;;;21.45;14.88;;;;;;;;;;6156563;23;20020;-82
2023/10/24 07:03:17;;;;;;;20.17;14.35;;;;;;;;;;6174711;23;20010;-84
2023/10/24 07:05:48;;;;;;;17.10;12.32;;;;;;;;;;6174424;23;20148;-82
2023/10/24 07:08:14;;;;;;;16.25;11.65;;;;;;;;;;6157286;23;20041;-80
2023/10/24 07:10:41;;;;;;;17.38;13.88;;;;;;;;;;6155184;23;20060;-80
2023/10/24 07:13:07;;;;;;;16.17;11.10;;;;;;;;;;6155281;23;20013;-81
2023/10/24 07:15:33;;;;;;;13.27;11.88;;;;;;;;;;6155312;23;20016;-81
2023/10/24 07:17:59;;;;;;;19.60;12.00;;;;;;;;;;6156417;23;20100;-81
2023/10/24 07:20:25;;;;;;;11.55;10.00;;;;;;;;;;6155337;23;20018;-81
2023/10/24 07:22:51;;;;;;;15.55;10.90;;;;;;;;;;6157317;23;20013;-80
2023/10/24 07:25:17;;;;;;;16.30;11.32;;;;;;;;;;6155797;23;20048;-81
2023/10/24 07:27:43;;;;;;;20.80;13.73;;;;;;;;;;6158328;23;20010;-81
2023/10/24 07:30:09;;;;;;;23.52;15.38;;;;;;;;;;6167137;23;20524;-83
2023/10/24 07:32:35;;;;;;;20.25;13.20;;;;;;;;;;6172836;23;20017;-83
2023/10/24 07:35:01;;;;;;;15.07;12.10;;;;;;;;;;6178333;23;20017;-84
2023/10/24 07:37:29;;;;;;;14.77;13.27;;;;;;;;;;6179100;23;20001;-82
2023/10/24 07:39:55;;;;;;;13.88;11.85;;;;;;;;;;6157251;23;20108;-82
2023/10/24 07:42:21;;;;;;;18.52;12.63;;;;;;;;;;6162913;23;20036;-82
2023/10/24 07:44:47;;;;;;;15.32;11.60;;;;;;;;;;6163901;23;20108;-83
2023/10/24 07:47:13;;;;;;;16.90;12.30;;;;;;;;;;6165160;23;20021;-80
2023/10/24 07:49:39;;;;;;;25.15;14.88;;;;;;;;;;6161503;23;20092;-81
2023/10/24 07:52:05;;;;;;;14.73;10.57;;;;;;;;;;6163081;23;20092;-80
2023/10/24 07:54:31;;;;;;;31.08;19.65;;;;;;;;;;6162812;23;20100;-81
2023/10/24 07:56:57;;;;;;;25.02;15.18;;;;;;;;;;6165125;23;20045;-82
2023/10/24 07:59:23;;;;;;;16.83;14.00;;;;;;;;;;6169255;23;20029;-78
2023/10/24 08:01:49;;;;;;;15.35;11.73;;;;;;;;;;6168748;23;20450;-83
2023/10/24 08:04:15;;;;;;;17.48;12.43;;;;;;;;;;6166192;23;20092;-82
2023/10/24 08:06:41;;;;;;;15.50;10.98;;;;;;;;;;6158478;23;20009;-79
2023/10/24 08:09:07;;;;;;;12.68;9.85;;;;;;;;;;6157837;23;20083;-79
2023/10/24 08:11:33;;;;;;;16.77;13.60;;;;;;;;;;6155226;23;20013;-80
2023/10/24 08:13:59;;;;;;;13.23;10.10;;;;;;;;;;6158004;23;20013;-82
2023/10/24 08:16:25;;;;;;;11.93;10.73;;;;;;;;;;6152427;23;20036;-80
2023/10/24 08:18:51;;;;;;;15.48;11.65;;;;;;;;;;6153355;23;20470;-80
2023/10/24 08:21:17;;;;;;;12.55;10.85;;;;;;;;;;6154512;23;20092;-81
2023/10/24 08:23:43;;;;;;;12.85;9.73;;;;;;;;;;6156581;23;20041;-80
2023/10/24 08:26:09;;;;;;;11.63;9.43;;;;;;;;;;6156569;23;20016;-81
2023/10/24 08:28:35;;;;;;;11.00;9.68;;;;;;;;;;6157686;23;20014;-80
2023/10/24 08:31:01;;;;;;;9.05;7.13;;;;;;;;;;6158229;23;20049;-80
2023/10/24 08:33:28;;;;;;;10.70;9.68;;;;;;;;;;6162380;23;20009;-80
2023/10/24 08:35:55;;;;;;;10.20;8.93;;;;;;;;;;6156167;23;20017;-79
2023/10/24 08:38:20;;;;;;;17.15;13.90;;;;;;;;;;6173059;23;20013;-79
2023/10/24 08:40:46;;;;;;;7.60;6.80;;;;;;;;;;6168871;23;20058;-83
2023/10/24 08:43:13;;;;;;;10.32;8.15;;;;;;;;;;6175504;23;20020;-82
2023/10/24 08:45:39;;;;;;;8.93;8.02;;;;;;;;;;6170647;23;20063;-82
2023/10/24 08:48:05;;;;;;;9.43;8.55;;;;;;;;;;6167702;23;20037;-82
2023/10/24 08:50:32;;;;;;;8.82;7.25;;;;;;;;;;6162219;23;20085;-82
2023/10/24 08:52:58;;;;;;;11.70;8.23;;;;;;;;;;6171824;23;20018;-82
2023/10/24 08:55:24;;;;;;;7.40;6.63;;;;;;;;;;6167094;23;20537;-82
2023/10/24 08:57:50;;;;;;;9.90;9.10;;;;;;;;;;6169441;23;20013;-82
2023/10/24 09:00:17;;;;;;;8.02;7.22;;;;;;;;;;6165563;23;20013;-82
2023/10/24 09:02:46;;;;;;;9.38;8.40;;;;;;;;;;6166436;23;20014;-76
2023/10/24 09:05:12;;;;;;;7.97;6.43;;;;;;;;;;6152808;23;20017;-77
2023/10/24 09:07:38;;;;;;;6.57;5.35;;;;;;;;;;6160179;23;19993;-83
2023/10/24 09:10:04;;;;;;;9.05;8.15;;;;;;;;;;6147339;23;20057;-81
2023/10/24 09:12:31;;;;;;;8.15;5.88;;;;;;;;;;6169268;23;20009;-83
2023/10/24 09:14:58;;;;;;;7.55;6.57;;;;;;;;;;6175041;23;20097;-82
2023/10/24 09:17:24;;;;;;;9.05;6.57;;;;;;;;;;6174597;23;20010;-82
2023/10/24 09:19:50;;;;;;;6.25;5.72;;;;;;;;;;6172470;23;20025;-84
2023/10/24 09:22:16;;;;;;;8.15;7.45;;;;;;;;;;6169173;23;20477;-83
2023/10/24 09:24:46;;;;;;;11.77;10.68;;;;;;;;;;6171203;23;20013;-83
2023/10/24 09:27:19;;;;;;;7.35;6.78;;;;;;;;;;6172250;23;20068;-84
2023/10/24 09:29:48;;;;;;;5.93;5.43;;;;;;;;;;6145997;23;20013;-83
2023/10/24 09:32:15;;;;;;;6.70;6.10;;;;;;;;;;6142910;23;20024;-83
2023/10/24 09:34:45;;;;;;;10.80;8.43;;;;;;;;;;6169501;23;20014;-82
2023/10/24 09:37:13;;;;;;;8.70;7.18;;;;;;;;;;6164751;23;20014;-82
2023/10/24 09:39:51;;;;;;;8.80;7.60;;;;;;;;;;6168596;23;20032;-82
2023/10/24 09:42:18;;;;;;;8.95;8.05;;;;;;;;;;6166970;23;20016;-83
2023/10/24 09:44:44;;;;;;;9.23;7.80;;;;;;;;;;6168887;23;20014;-82
2023/10/24 09:47:10;;;;;;;10.07;6.80;;;;;;;;;;6170567;23;20009;-84
2023/10/24 09:49:36;;;;;;;7.32;6.57;;;;;;;;;;6174295;23;20036;-83
2023/10/24 09:52:02;;;;;;;6.38;5.82;;;;;;;;;;6175573;23;20025;-84
2023/10/24 09:54:28;;;;;;;7.47;6.78;;;;;;;;;;6175600;23;20024;-83
2023/10/24 09:56:55;;;;;;;11.95;7.75;;;;;;;;;;6177201;23;20072;-84
2023/10/24 09:59:20;;;;;;;9.55;7.78;;;;;;;;;;6177327;23;20010;-83
2023/10/24 10:01:47;;;;;;;7.40;6.80;;;;;;;;;;6176273;23;20013;-84
2023/10/24 10:04:13;;;;;;;8.85;8.13;;;;;;;;;;6176904;23;20023;-84
2023/10/24 10:06:39;;;;;;;15.25;7.38;;;;;;;;;;6173993;23;20010;-83
2023/10/24 10:09:05;;;;;;;12.77;8.25;;;;;;;;;;6172673;23;20021;-84
2023/10/24 10:11:32;;;;;;;7.13;6.50;;;;;;;;;;6174962;23;20346;-84
2023/10/24 10:14:09;;;;;;;15.27;8.05;;;;;;;;;;6173606;23;20013;-84
2023/10/24 10:16:39;;;;;;;7.40;6.70;;;;;;;;;;6151896;23;20013;-84
2023/10/24 10:19:06;;;;;;;8.43;7.55;;;;;;;;;;6152673;23;20062;-84
2023/10/24 10:21:55;;;;;;;7.07;6.38;;;;;;;;;;6179160;23;20010;-83
2023/10/24 10:24:24;;;;;;;8.55;7.65;;;;;;;;;;6138323;23;20017;-85
2023/10/24 10:26:59;;;;;;;7.47;6.88;;;;;;;;;;6180089;23;20013;-85
2023/10/24 10:29:46;;;;;;;7.07;6.45;;;;;;;;;;6178015;23;20050;-81
2023/10/24 10:32:27;;;;;;;11.23;7.93;;;;;;;;;;6159335;23;20010;-85
2023/10/24 10:34:54;;;;;;;8.55;7.53;;;;;;;;;;6174340;23;20041;-85
2023/10/24 10:37:19;;;;;;;7.97;7.18;;;;;;;;;;6173026;23;20032;-84
2023/10/24 10:40:06;;;;;;;7.88;7.07;;;;;;;;;;6167239;23;20065;-84
2023/10/24 10:42:50;;;;;;;9.20;6.82;;;;;;;;;;6154620;23;20094;-85
2023/10/24 10:45:26;;;;;;;14.60;8.82;;;;;;;;;;6171029;23;20037;-84
2023/10/24 10:47:52;;;;;;;13.60;7.90;;;;;;;;;;6172291;23;20017;-83
2023/10/24 10:50:22;;;;;;;10.27;6.72;;;;;;;;;;6170508;23;20023;-84
2023/10/24 10:52:52;;;;;;;6.60;6.00;;;;;;;;;;6172119;23;20036;-82
2023/10/24 10:55:24;;;;;;;7.75;6.40;;;;;;;;;;6169373;23;20025;-83
2023/10/24 10:57:56;;;;;;;7.85;5.40;;;;;;;;;;6169596;23;20014;-84
2023/10/24 11:00:22;;;;;;;6.05;5.50;;;;;;;;;;6169683;23;20017;-84
2023/10/24 11:03:03;;;;;;;6.85;6.22;;;;;;;;;;6168597;23;20013;-83
2023/10/24 11:05:35;;;;;;;7.78;6.20;;;;;;;;;;6169160;23;20017;-84
2023/10/24 11:08:02;;;;;;;9.02;6.90;;;;;;;;;;6171526;23;20029;-84
2023/10/24 11:10:47;;;;;;;10.10;6.97;;;;;;;;;;6173016;23;20005;-84
2023/10/24 11:13:32;;;;;;;7.47;5.72;;;;;;;;;;6121897;23;20018;-83
2023/10/24 11:15:59;;;;;;;9.93;6.22;;;;;;;;;;6170726;23;20018;-83
2023/10/24 11:18:25;;;;;;;6.90;6.20;;;;;;;;;;6172372;23;20029;-82
2023/10/24 11:20:52;;;;;;;8.93;6.95;;;;;;;;;;6173230;23;20009;-84
2023/10/24 11:23:18;;;;;;;7.28;6.60;;;;;;;;;;6173219;23;20009;-84
2023/10/24 11:25:44;;;;;;;9.80;7.45;;;;;;;;;;6175089;23;20072;-81
2023/10/24 11:28:10;;;;;;;8.98;6.57;;;;;;;;;;6177399;23;20040;-83
2023/10/24 11:30:36;;;;;;;7.90;7.20;;;;;;;;;;6180263;23;19993;-83
2023/10/24 11:33:02;;;;;;;7.68;6.78;;;;;;;;;;6171963;23;20028;-82
2023/10/24 11:35:28;;;;;;;12.20;8.40;;;;;;;;;;6169639;23;20065;-83
2023/10/24 11:37:54;;;;;;;11.68;9.18;;;;;;;;;;6166867;23;20036;-82
2023/10/24 11:40:20;;;;;;;11.90;9.50;;;;;;;;;;6164379;23;20013;-82
2023/10/24 11:42:46;;;;;;;9.00;8.10;;;;;;;;;;6163157;23;20013;-81
2023/10/24 11:45:12;;;;;;;10.65;8.60;;;;;;;;;;6158519;23;20044;-83
2023/10/24 11:47:38;;;;;;;10.90;7.57;;;;;;;;;;6158019;23;20064;-83
2023/10/24 11:50:04;;;;;;;9.05;8.10;;;;;;;;;;6166308;23;20042;-81
2023/10/24 11:52:30;;;;;;;10.63;7.78;;;;;;;;;;6168639;23;20336;-82
2023/10/24 11:54:57;;;;;;;7.07;6.35;;;;;;;;;;6168613;23;20045;-84
2023/10/24 11:57:23;;;;;;;7.95;6.80;;;;;;;;;;6167665;23;20080;-83
2023/10/24 11:59:50;;;;;;;6.78;6.13;;;;;;;;;;6168014;23;20000;-83
2023/10/24 12:02:19;;;;;;;8.90;6.25;;;;;;;;;;6168289;23;20020;-80
2023/10/24 12:04:49;;;;;;;6.05;5.22;;;;;;;;;;6159451;23;20023;-81
2023/10/24 12:07:15;;;;;;;13.20;7.03;;;;;;;;;;6161315;23;20041;-82
2023/10/24 12:09:41;;;;;;;11.77;6.57;;;;;;;;;;6167579;23;20064;-82
2023/10/24 12:12:07;;;;;;;9.77;6.22;;;;;;;;;;6166883;23;20014;-82
2023/10/24 12:14:35;;;;;;;8.70;7.20;;;;;;;;;;6168311;23;20446;-83
2023/10/24 12:17:01;;;;;;;7.40;5.82;;;;;;;;;;6167615;23;20013;-82
2023/10/24 12:19:27;;;;;;;12.80;8.18;;;;;;;;;;6166909;23;20021;-81
2023/10/24 12:21:53;;;;;;;7.72;7.03;;;;;;;;;;6166687;23;20013;-83
2023/10/24 12:24:19;;;;;;;6.05;5.45;;;;;;;;;;6116464;23;20493;-82
2023/10/24 12:26:45;;;;;;;6.30;5.78;;;;;;;;;;6165853;23;20049;-82
2023/10/24 12:29:11;;;;;;;6.57;5.57;;;;;;;;;;6167555;23;20041;-83
2023/10/24 12:31:38;;;;;;;9.65;7.05;;;;;;;;;;6172404;23;20029;-82
2023/10/24 12:34:04;;;;;;;7.65;6.22;;;;;;;;;;6171188;23;20073;-80
2023/10/24 12:36:30;;;;;;;5.57;5.05;;;;;;;;;;6167732;23;20009;-81
2023/10/24 12:38:57;;;;;;;7.20;5.43;;;;;;;;;;6167963;23;20021;-82
2023/10/24 12:41:23;;;;;;;7.03;6.20;;;;;;;;;;6168187;23;20090;-81
2023/10/24 12:43:49;;;;;;;7.03;6.32;;;;;;;;;;6168043;23;20017;-81
2023/10/24 12:46:14;;;;;;;8.90;6.97;;;;;;;;;;6166205;23;20009;-80
2023/10/24 12:48:41;;;;;;;6.30;5.22;;;;;;;;;;6161499;23;20013;-83
2023/10/24 12:51:07;;;;;;;4.93;4.53;;;;;;;;;;6169369;23;20117;-82
2023/10/24 12:53:33;;;;;;;6.13;5.28;;;;;;;;;;6167950;23;20024;-81
2023/10/24 12:56:01;;;;;;;7.60;5.53;;;;;;;;;;6170108;23;20049;-80
2023/10/24 12:58:28;;;;;;;9.27;8.48;;;;;;;;;;6167740;23;20032;-81
2023/10/24 13:00:55;;;;;;;7.32;5.65;;;;;;;;;;6168166;23;20022;-83
2023/10/24 13:03:21;;;;;;;7.32;5.38;;;;;;;;;;6169077;23;20014;-81
2023/10/24 13:05:47;;;;;;;7.07;6.38;;;;;;;;;;6161996;23;20014;-79
2023/10/24 13:08:13;;;;;;;6.20;5.60;;;;;;;;;;6151819;23;20387;-79
2023/10/24 13:10:40;;;;;;;5.90;4.85;;;;;;;;;;6154320;23;20029;-81
2023/10/24 13:13:06;;;;;;;5.75;4.68;;;;;;;;;;6154089;23;20379;-80
2023/10/24 13:15:32;;;;;;;5.13;4.68;;;;;;;;;;6155340;23;20101;-79
2023/10/24 13:17:58;;;;;;;4.65;4.25;;;;;;;;;;6152491;23;20049;-77
2023/10/24 13:20:24;;;;;;;4.65;3.65;;;;;;;;;;6154193;23;20025;-82
2023/10/24 13:22:51;;;;;;;8.35;4.90;;;;;;;;;;6155766;23;20454;-80
2023/10/24 13:25:17;;;;;;;4.85;4.38;;;;;;;;;;6155738;23;20469;-80
2023/10/24 13:27:44;;;;;;;6.85;6.25;;;;;;;;;;6157844;23;20366;-80
2023/10/24 13:30:11;;;;;;;7.45;6.25;;;;;;;;;;6158792;23;20130;-80
2023/10/24 13:32:38;;;;;;;5.20;4.80;;;;;;;;;;6158097;23;20013;-81
2023/10/24 13:35:04;;;;;;;9.65;6.90;;;;;;;;;;6159188;23;20096;-78
2023/10/24 13:37:31;;;;;;;4.85;4.43;;;;;;;;;;6160689;23;20454;-80
2023/10/24 13:39:57;;;;;;;6.30;5.68;;;;;;;;;;6155494;23;20104;-78
2023/10/24 13:42:23;;;;;;;5.85;5.25;;;;;;;;;;6155296;23;20013;-81
2023/10/24 13:44:49;;;;;;;6.30;5.60;;;;;;;;;;6155253;23;20023;-80
2023/10/24 13:47:15;;;;;;;6.72;6.00;;;;;;;;;;6132463;23;20013;-78
2023/10/24 13:49:41;;;;;;;4.75;4.32;;;;;;;;;;6152691;23;20064;-77
2023/10/24 13:52:09;;;;;;;3.55;3.35;;;;;;;;;;6151750;23;20044;-75
2023/10/24 13:54:35;;;;;;;5.50;5.00;;;;;;;;;;6150064;23;20021;-76
2023/10/24 13:57:02;;;;;;;4.63;4.22;;;;;;;;;;6152426;23;20051;-77
2023/10/24 13:59:29;;;;;;;4.28;3.88;;;;;;;;;;6152709;23;20104;-76
2023/10/24 14:01:55;;;;;;;4.53;4.13;;;;;;;;;;6150958;23;20017;-75
2023/10/24 14:04:21;;;;;;;4.50;4.20;;;;;;;;;;6098979;23;20046;-73
2023/10/24 14:06:47;;;;;;;4.55;4.15;;;;;;;;;;6091282;23;20014;-72
2023/10/24 14:09:14;;;;;;;6.70;4.55;;;;;;;;;;6091893;23;20343;-72
2023/10/24 14:11:40;;;;;;;4.25;3.95;;;;;;;;;;6092697;23;20073;-72
2023/10/24 14:14:06;;;;;;;6.85;3.88;;;;;;;;;;6090916;23;20150;-73
2023/10/24 14:16:32;;;;;;;4.40;4.07;;;;;;;;;;6090609;23;20494;-73
2023/10/24 14:18:59;;;;;;;3.80;3.50;;;;;;;;;;6091851;23;20022;-72
2023/10/24 14:21:26;;;;;;;4.82;4.53;;;;;;;;;;6093243;23;20359;-72
2023/10/24 14:23:52;;;;;;;5.25;4.85;;;;;;;;;;6092543;23;20021;-72
2023/10/24 14:26:18;;;;;;;5.20;4.80;;;;;;;;;;6092541;23;20057;-73
2023/10/24 14:28:44;;;;;;;4.55;4.18;;;;;;;;;;6092750;23;20021;-74
2023/10/24 14:31:10;;;;;;;3.72;3.22;;;;;;;;;;6092037;23;20454;-73
2023/10/24 14:33:37;;;;;;;4.28;3.88;;;;;;;;;;6091484;23;20010;-74
2023/10/24 14:36:04;;;;;;;4.07;3.78;;;;;;;;;;6090952;23;20421;-74